TimeCDT,TemperatureF,Dew PointF,Humidity,Sea Level PressureIn,VisibilityMPH,Wind Direction,Wind SpeedMPH,Gust SpeedMPH,PrecipitationIn,Events,Conditions,WindDirDegrees,DateUTC
12:53 AM,59.0,34.0,39,29.96,10.0,NW,9.2,-,N/A,,Clear,310,2011-10-15 05:53:00
1:53 AM,59.0,34.0,39,29.99,10.0,WNW,5.8,-,N/A,,Clear,300,2011-10-15 06:53:00
2:53 AM,55.0,34.0,45,30.00,10.0,WNW,3.5,-,N/A,,Clear,290,2011-10-15 07:53:00
3:53 AM,54.0,34.0,47,29.99,10.0,NW,3.5,-,N/A,,Clear,310,2011-10-15 08:53:00
4:53 AM,52.0,34.0,50,30.01,10.0,WSW,4.6,-,N/A,,Clear,250,2011-10-15 09:53:00
5:53 AM,44.1,37.0,76,30.03,10.0,WSW,5.8,-,N/A,,Clear,240,2011-10-15 10:53:00
6:53 AM,44.1,36.0,73,30.05,10.0,WSW,4.6,-,N/A,,Clear,240,2011-10-15 11:53:00
7:53 AM,48.2,37.4,66,30.07,10.0,WSW,6.9,-,N/A,,Clear,250,2011-10-15 12:53:00
8:53 AM,55.9,37.0,49,30.09,10.0,West,6.9,-,N/A,,Clear,280,2011-10-15 13:53:00
9:53 AM,60.1,37.0,42,30.11,10.0,NW,8.1,-,N/A,,Clear,310,2011-10-15 14:53:00
10:53 AM,62.6,37.4,39,30.12,10.0,NW,8.1,-,N/A,,Clear,310,2011-10-15 15:53:00
11:53 AM,64.9,37.0,36,30.10,10.0,WNW,9.2,16.1,N/A,,Clear,290,2011-10-15 16:53:00
12:53 PM,66.9,36.0,32,30.09,10.0,West,8.1,-,N/A,,Clear,270,2011-10-15 17:53:00
1:53 PM,68.0,36.0,31,30.07,10.0,West,11.5,16.1,N/A,,Clear,270,2011-10-15 18:53:00
2:53 PM,69.1,34.0,27,30.07,10.0,West,8.1,16.1,N/A,,Clear,260,2011-10-15 19:53:00
3:53 PM,70.0,35.1,28,30.06,10.0,West,8.1,-,N/A,,Clear,270,2011-10-15 20:53:00
4:53 PM,69.8,35.6,28,30.04,10.0,WSW,9.2,-,N/A,,Clear,250,2011-10-15 21:53:00
5:53 PM,66.0,37.0,34,30.04,9.0,SSW,3.5,-,N/A,,Clear,200,2011-10-15 22:53:00
6:53 PM,57.9,39.0,49,30.04,10.0,South,3.5,-,N/A,,Clear,170,2011-10-15 23:53:00
7:53 PM,61.0,37.0,41,30.03,10.0,South,5.8,-,N/A,,Clear,180,2011-10-16 00:53:00
8:53 PM,60.8,35.6,39,30.03,10.0,South,4.6,-,N/A,,Clear,180,2011-10-16 01:53:00
9:53 PM,57.9,36.0,44,30.03,10.0,South,5.8,-,N/A,,Clear,180,2011-10-16 02:53:00
10:53 PM,59.0,36.0,42,30.04,10.0,SSW,6.9,-,N/A,,Clear,200,2011-10-16 03:53:00
11:53 PM,55.9,36.0,47,30.04,10.0,South,4.6,-,N/A,,Clear,190,2011-10-16 04:53:00